Terminal Aerodrome Forecast
Issued by NWS

Home | Current Version | Previous Version | Graphics & Text | Print | Product List | Glossary On
Versions: 1 2 3 4 5 6 7 8 9 10 11 12 13 14 15 16 17 18 19
549
FTUS43 KUNR 241031 AAA
TAFGCC
TAF AMD
KGCC 241031Z 2411/2506 33016KT P6SM OVC007
     FM241400 33010KT P6SM OVC015
     FM241600 32010KT P6SM SCT015 BKN025
     FM241900 36010KT P6SM BKN035=

USA.gov is the U.S. government's official web portal to all federal, state and local government web resources and services.